createdAt,value
2023-01-19T00:01:26.108Z,97587.59
2023-01-19T00:03:53.428Z,97588.81
2023-01-19T00:06:20.576Z,97594.31
2023-01-19T00:08:49.723Z,97583.13
2023-01-19T00:11:18.039Z,97581.88
2023-01-19T00:13:51.921Z,97595.53
2023-01-19T00:16:22.913Z,97597.94
2023-01-19T00:18:51.783Z,97592.72
2023-01-19T00:21:20.029Z,97585.63
2023-01-19T00:23:47.589Z,97589.06
2023-01-19T00:26:18.902Z,97590.38
2023-01-19T00:28:46.064Z,97581.59
2023-01-19T00:31:13.513Z,97579.84
2023-01-19T00:33:40.558Z,97576.47
2023-01-19T00:36:08.011Z,97576.72
2023-01-19T00:38:35.335Z,97581.88
2023-01-19T00:41:02.347Z,97582.72
2023-01-19T00:43:29.314Z,97576.06
2023-01-19T00:45:56.709Z,97578.19
2023-01-19T00:48:23.859Z,97570.34
2023-01-19T00:50:50.911Z,97570.94
2023-01-19T00:53:18.284Z,97566.66
2023-01-19T00:55:45.278Z,97567.31
2023-01-19T00:58:12.353Z,97571.00
2023-01-19T01:00:39.664Z,97566.00
2023-01-19T01:03:06.798Z,97565.41
2023-01-19T01:05:35.446Z,97566.41
2023-01-19T01:08:02.804Z,97572.56
2023-01-19T01:10:29.895Z,97571.63
2023-01-19T01:12:59.110Z,97576.87
2023-01-19T01:15:44.290Z,97571.31
2023-01-19T01:18:11.292Z,97581.78
2023-01-19T01:20:38.313Z,97587.00
2023-01-19T01:23:05.621Z,97583.72
2023-01-19T01:25:37.445Z,97571.50
2023-01-19T01:28:08.638Z,97574.09
2023-01-19T01:30:40.011Z,97579.44
2023-01-19T01:33:08.112Z,97580.38
2023-01-19T01:35:35.420Z,97584.91
2023-01-19T01:38:02.520Z,97588.22
2023-01-19T01:40:29.986Z,97584.66
2023-01-19T01:42:57.304Z,97595.28
2023-01-19T01:45:24.254Z,97604.12
2023-01-19T01:47:52.020Z,97600.84
2023-01-19T01:50:28.656Z,97606.69
2023-01-19T01:53:07.308Z,97608.34
2023-01-19T01:55:49.122Z,97611.75
2023-01-19T01:58:16.800Z,97617.28
2023-01-19T02:01:02.999Z,97628.91
2023-01-19T02:03:32.359Z,97636.00
2023-01-19T02:06:01.789Z,97639.38
2023-01-19T02:08:55.883Z,97633.47
2023-01-19T02:11:42.227Z,97627.75
2023-01-19T02:14:09.242Z,97615.94
2023-01-19T02:16:37.658Z,97586.41
2023-01-19T02:19:08.252Z,97573.06
2023-01-19T02:21:43.996Z,97577.87
2023-01-19T02:24:11.787Z,97593.19
2023-01-19T02:26:45.559Z,97618.44
2023-01-19T02:29:19.026Z,97625.66
2023-01-19T02:31:46.936Z,97643.19
2023-01-19T02:34:17.747Z,97643.25
2023-01-19T02:37:03.468Z,97626.25
2023-01-19T02:39:47.743Z,97612.19
2023-01-19T02:42:19.901Z,97610.66
2023-01-19T02:44:50.844Z,97615.13
2023-01-19T02:47:18.410Z,97606.16
2023-01-19T02:49:53.957Z,97593.00
2023-01-19T02:52:21.460Z,97605.84
2023-01-19T02:55:08.652Z,97599.69
2023-01-19T02:57:36.231Z,97612.59
2023-01-19T03:00:25.651Z,97608.03
2023-01-19T03:03:05.491Z,97622.31
2023-01-19T03:06:01.592Z,97618.62
2023-01-19T03:09:18.272Z,97616.22
2023-01-19T03:11:51.810Z,97612.25
2023-01-19T03:14:25.180Z,97622.69
2023-01-19T03:16:57.455Z,97639.44
2023-01-19T03:19:39.296Z,97647.69
2023-01-19T03:22:22.429Z,97650.31
2023-01-19T03:24:51.735Z,97641.16
2023-01-19T03:27:26.333Z,97603.97
2023-01-19T03:29:58.031Z,97581.75
2023-01-19T03:32:48.792Z,97571.97
2023-01-19T03:35:18.358Z,97573.38
2023-01-19T03:37:47.944Z,97576.94
2023-01-19T03:40:15.578Z,97568.84
2023-01-19T03:42:44.808Z,97552.06
2023-01-19T03:45:13.213Z,97554.25
2023-01-19T03:47:41.199Z,97543.16
2023-01-19T03:50:14.721Z,97553.81
2023-01-19T03:52:42.174Z,97556.75
2023-01-19T03:55:10.411Z,97553.22
2023-01-19T03:57:37.614Z,97549.31
2023-01-19T04:00:05.522Z,97578.69
2023-01-19T04:02:39.032Z,97594.53
2023-01-19T04:05:06.891Z,97619.47
2023-01-19T04:07:33.948Z,97619.38
2023-01-19T04:10:01.058Z,97607.72
2023-01-19T04:12:28.406Z,97615.13
2023-01-19T04:14:55.746Z,97628.22
2023-01-19T04:17:22.839Z,97630.81
2023-01-19T04:19:50.211Z,97621.03
2023-01-19T04:22:17.260Z,97627.62
2023-01-19T04:24:44.355Z,97614.59
2023-01-19T04:27:11.739Z,97608.37
2023-01-19T04:29:38.857Z,97603.56
2023-01-19T04:32:06.027Z,97604.69
2023-01-19T04:34:33.592Z,97600.47
2023-01-19T04:37:00.763Z,97597.59
2023-01-19T04:39:27.846Z,97600.19
2023-01-19T04:41:57.452Z,97595.28
2023-01-19T04:44:24.572Z,97598.81
2023-01-19T04:46:52.216Z,97607.22
2023-01-19T04:49:19.679Z,97603.84
2023-01-19T04:51:47.223Z,97616.78
2023-01-19T04:54:14.414Z,97627.34
2023-01-19T04:56:41.889Z,97623.13
2023-01-19T04:59:09.097Z,97620.63
2023-01-19T05:01:36.863Z,97620.53
2023-01-19T05:04:06.463Z,97620.06
2023-01-19T05:06:34.718Z,97616.63
2023-01-19T05:09:01.962Z,97608.41
2023-01-19T05:11:29.366Z,97604.94
2023-01-19T05:13:56.498Z,97598.28
2023-01-19T05:16:23.781Z,97609.53
2023-01-19T05:18:51.267Z,97633.91
2023-01-19T05:21:18.493Z,97645.28
2023-01-19T05:23:45.640Z,97669.19
2023-01-19T05:26:13.119Z,97683.25
2023-01-19T05:28:40.266Z,97685.22
2023-01-19T05:31:07.535Z,97691.72
2023-01-19T05:33:34.999Z,97688.88
2023-01-19T05:36:02.188Z,97675.22
2023-01-19T05:38:35.283Z,97673.12
2023-01-19T05:41:03.377Z,97668.91
2023-01-19T05:43:30.513Z,97669.19
2023-01-19T05:45:57.619Z,97666.81
2023-01-19T05:48:25.046Z,97668.16
2023-01-19T05:50:57.304Z,97664.53
2023-01-19T05:53:24.785Z,97670.69
2023-01-19T05:55:51.892Z,97667.63
2023-01-19T05:58:18.968Z,97644.16
2023-01-19T06:00:46.841Z,97637.41
2023-01-19T06:03:14.263Z,97641.84
2023-01-19T06:05:41.367Z,97654.03
2023-01-19T06:08:08.613Z,97655.06
2023-01-19T06:10:36.053Z,97663.69
2023-01-19T06:13:03.462Z,97636.31
2023-01-19T06:15:30.978Z,97633.84
2023-01-19T06:17:58.351Z,97635.47
2023-01-19T06:20:25.462Z,97630.94
2023-01-19T06:22:52.606Z,97604.16
2023-01-19T06:25:20.007Z,97595.28
2023-01-19T06:27:47.195Z,97591.19
2023-01-19T06:30:14.814Z,97594.88
2023-01-19T06:32:42.377Z,97601.50
2023-01-19T06:35:09.755Z,97623.72
2023-01-19T06:37:36.866Z,97648.72
2023-01-19T06:40:04.872Z,97662.47
2023-01-19T06:42:32.158Z,97660.66
2023-01-19T06:44:59.473Z,97671.00
2023-01-19T06:47:26.906Z,97669.88
2023-01-19T06:49:54.096Z,97659.16
2023-01-19T06:52:21.256Z,97652.41
2023-01-19T06:54:48.762Z,97639.94
2023-01-19T06:57:17.251Z,97640.78
2023-01-19T06:59:44.594Z,97636.22
2023-01-19T07:02:27.272Z,97621.41
2023-01-19T07:04:56.621Z,97625.47
2023-01-19T07:07:24.125Z,97634.91
2023-01-19T07:09:51.510Z,97632.28
2023-01-19T07:12:21.807Z,97630.53
2023-01-19T07:14:49.634Z,97633.75
2023-01-19T07:17:16.975Z,97642.25
2023-01-19T07:19:44.227Z,97641.13
2023-01-19T07:22:11.626Z,97655.59
2023-01-19T07:24:38.824Z,97653.75
2023-01-19T07:27:05.946Z,97661.97
2023-01-19T07:29:33.316Z,97674.84
2023-01-19T07:32:00.789Z,97675.00
2023-01-19T07:34:28.357Z,97680.22
2023-01-19T07:36:56.572Z,97683.41
2023-01-19T07:39:23.709Z,97685.97
2023-01-19T07:41:50.940Z,97684.97
2023-01-19T07:44:18.885Z,97688.28
2023-01-19T07:46:45.948Z,97690.78
2023-01-19T07:49:13.408Z,97696.00
2023-01-19T07:51:40.796Z,97698.63
2023-01-19T07:54:08.541Z,97700.91
2023-01-19T07:56:35.687Z,97700.31
2023-01-19T07:59:03.382Z,97712.34
2023-01-19T08:01:31.564Z,97708.19
2023-01-19T08:03:59.037Z,97707.06
2023-01-19T08:06:35.443Z,97703.59
2023-01-19T08:09:05.562Z,97695.84
2023-01-19T08:11:33.723Z,97685.50
2023-01-19T08:14:01.015Z,97680.69
2023-01-19T08:16:28.393Z,97677.78
2023-01-19T08:18:56.481Z,97674.22
2023-01-19T08:21:23.696Z,97680.12
2023-01-19T08:23:58.110Z,97678.31
2023-01-19T08:26:34.984Z,97674.91
2023-01-19T08:29:04.827Z,97677.59
2023-01-19T08:31:32.348Z,97675.06
2023-01-19T08:33:59.506Z,97694.25
2023-01-19T08:36:27.342Z,97684.81
2023-01-19T08:38:54.464Z,97694.16
2023-01-19T08:41:22.344Z,97701.41
2023-01-19T08:43:50.270Z,97698.94
2023-01-19T08:46:20.770Z,97694.47
2023-01-19T08:48:54.511Z,97693.09
2023-01-19T08:51:22.384Z,97690.34
2023-01-19T08:53:49.605Z,97687.44
2023-01-19T08:56:18.532Z,97686.75
2023-01-19T08:58:59.446Z,97693.56
2023-01-19T09:01:37.019Z,97695.62
2023-01-19T09:04:04.924Z,97691.97
2023-01-19T09:06:32.707Z,97684.84
2023-01-19T09:09:00.562Z,97684.34
2023-01-19T09:11:27.985Z,97688.62
2023-01-19T09:13:55.206Z,97702.69
2023-01-19T09:16:22.469Z,97706.13
2023-01-19T09:18:49.958Z,97706.59
2023-01-19T09:21:16.991Z,97709.13
2023-01-19T09:23:44.619Z,97701.91
2023-01-19T09:26:12.055Z,97702.44
2023-01-19T09:28:39.523Z,97695.66
2023-01-19T09:31:08.400Z,97687.88
2023-01-19T09:33:36.155Z,97696.69
2023-01-19T09:36:03.463Z,97707.06
2023-01-19T09:38:32.836Z,97711.44
2023-01-19T09:41:01.326Z,97707.34
2023-01-19T09:43:48.807Z,97701.75
2023-01-19T09:46:29.765Z,97707.66
2023-01-19T09:49:01.455Z,97695.09
2023-01-19T09:51:34.796Z,97699.09
2023-01-19T09:54:07.899Z,97700.69
2023-01-19T09:56:36.025Z,97706.72
2023-01-19T09:59:29.556Z,97709.44
2023-01-19T10:02:07.102Z,97714.41
2023-01-19T10:04:40.302Z,97713.63
2023-01-19T10:07:28.474Z,97722.31
2023-01-19T10:10:17.405Z,97715.09
2023-01-19T10:13:21.687Z,97714.69
2023-01-19T10:15:55.232Z,97710.81
2023-01-19T10:18:41.123Z,97717.25
2023-01-19T10:21:10.549Z,97716.41
2023-01-19T10:24:06.649Z,97715.47
2023-01-19T10:26:38.505Z,97712.09
2023-01-19T10:29:13.521Z,97714.66
2023-01-19T10:31:44.753Z,97713.47
2023-01-19T10:34:21.592Z,97728.47
2023-01-19T10:37:02.599Z,97720.16
2023-01-19T10:39:30.107Z,97728.84
2023-01-19T10:42:01.003Z,97734.78
2023-01-19T10:44:33.974Z,97735.66
2023-01-19T10:47:02.296Z,97741.78
2023-01-19T10:49:36.220Z,97740.88
2023-01-19T10:52:05.252Z,97742.41
2023-01-19T10:54:36.334Z,97755.91
2023-01-19T10:57:07.585Z,97759.41
2023-01-19T10:59:46.579Z,97758.69
2023-01-19T11:02:28.789Z,97761.09
2023-01-19T11:05:01.908Z,97757.16
2023-01-19T11:07:33.985Z,97750.25
2023-01-19T11:10:16.566Z,97746.81
2023-01-19T11:12:59.049Z,97747.38
2023-01-19T11:15:44.641Z,97745.47
2023-01-19T11:18:27.252Z,97745.91
2023-01-19T11:20:56.840Z,97738.37
2023-01-19T11:23:43.016Z,97733.75
2023-01-19T11:26:16.460Z,97728.28
2023-01-19T11:28:48.717Z,97735.75
2023-01-19T11:31:17.641Z,97741.88
2023-01-19T11:33:45.563Z,97749.12
2023-01-19T11:36:36.321Z,97747.72
2023-01-19T11:39:12.651Z,97740.59
2023-01-19T11:41:41.304Z,97741.94
2023-01-19T11:44:26.508Z,97744.25
2023-01-19T11:46:59.832Z,97741.41
2023-01-19T11:49:33.185Z,97747.88
2023-01-19T11:55:32.097Z,97750.34
2023-01-19T11:57:59.720Z,97738.94
2023-01-19T12:00:42.596Z,97746.94
2023-01-19T12:03:39.405Z,97752.09
2023-01-19T12:06:15.425Z,97756.97
2023-01-19T12:08:48.495Z,97760.78
2023-01-19T12:11:20.130Z,97763.41
2023-01-19T12:13:48.587Z,97774.19
2023-01-19T12:16:25.209Z,97774.87
2023-01-19T12:19:00.033Z,97786.00
2023-01-19T12:21:26.968Z,97790.37
2023-01-19T12:23:57.305Z,97800.31
2023-01-19T12:26:54.290Z,97800.09
2023-01-19T12:29:25.978Z,97808.03
2023-01-19T12:32:16.389Z,97810.47
2023-01-19T12:34:48.286Z,97825.44
2023-01-19T12:37:27.802Z,97826.25
2023-01-19T12:39:57.856Z,97813.94
2023-01-19T12:42:26.490Z,97812.69
2023-01-19T12:45:16.486Z,97825.69
2023-01-19T12:47:54.225Z,97827.59
2023-01-19T12:50:24.144Z,97827.72
2023-01-19T12:52:58.719Z,97835.06
2023-01-19T12:55:36.263Z,97827.06
2023-01-19T12:58:06.524Z,97833.47
2023-01-19T13:00:44.795Z,97836.53
2023-01-19T13:03:17.805Z,97849.81
2023-01-19T13:05:44.751Z,97855.22
2023-01-19T13:08:19.388Z,97861.16
2023-01-19T13:11:10.752Z,97869.88
2023-01-19T13:14:04.236Z,97870.66
2023-01-19T13:16:31.264Z,97876.69
2023-01-19T13:18:58.534Z,97875.66
2023-01-19T13:21:28.529Z,97879.22
2023-01-19T13:24:02.154Z,97888.09
2023-01-19T13:26:52.041Z,97892.66
2023-01-19T13:29:35.296Z,97904.25
2023-01-19T13:32:06.492Z,97905.91
2023-01-19T13:34:42.518Z,97912.03
2023-01-19T13:37:20.013Z,97920.06
2023-01-19T13:39:50.162Z,97922.09
2023-01-19T13:42:40.039Z,97928.41
2023-01-19T13:45:28.331Z,97929.66
2023-01-19T13:47:58.683Z,97931.91
2023-01-19T13:50:40.207Z,97947.41
2023-01-19T13:53:19.063Z,97949.16
2023-01-19T13:55:48.162Z,97939.66
2023-01-19T13:58:23.457Z,97944.88
2023-01-19T14:00:50.681Z,97942.53
2023-01-19T14:03:23.048Z,97932.53
2023-01-19T14:05:52.485Z,97938.78
2023-01-19T14:08:21.640Z,97933.03
2023-01-19T14:10:54.740Z,97938.19
2023-01-19T14:13:31.121Z,97929.38
2023-01-19T14:16:06.615Z,97927.00
2023-01-19T14:18:35.384Z,97930.25
2023-01-19T14:21:15.750Z,97943.22
2023-01-19T14:23:43.137Z,97939.69
2023-01-19T14:26:38.007Z,97944.84
2023-01-19T14:29:17.291Z,97958.87
2023-01-19T14:31:53.195Z,97955.81
2023-01-19T14:34:34.162Z,97963.59
2023-01-19T14:37:03.477Z,97964.56
2023-01-19T14:39:35.864Z,97956.16
2023-01-19T14:42:06.884Z,97956.28
2023-01-19T14:44:37.113Z,97954.12
2023-01-19T14:47:05.959Z,97975.59
2023-01-19T14:49:47.547Z,97981.53
2023-01-19T14:52:33.776Z,97999.69
2023-01-19T14:55:03.912Z,98022.50
2023-01-19T14:57:30.956Z,98048.22
2023-01-19T14:59:58.076Z,98051.38
2023-01-19T15:02:25.648Z,98052.94
2023-01-19T15:04:55.429Z,98052.09
2023-01-19T15:07:25.104Z,98028.59
2023-01-19T15:09:52.835Z,98015.69
2023-01-19T15:12:24.065Z,98025.34
2023-01-19T15:14:51.155Z,98015.91
2023-01-19T15:17:25.652Z,98003.81
2023-01-19T15:19:56.194Z,98011.91
2023-01-19T15:22:28.795Z,98009.41
2023-01-19T15:24:59.999Z,98022.59
2023-01-19T15:27:27.526Z,98022.44
2023-01-19T15:29:54.653Z,98032.19
2023-01-19T15:32:21.719Z,98036.59
2023-01-19T15:34:49.118Z,98050.41
2023-01-19T15:37:16.167Z,98043.34
2023-01-19T15:39:43.166Z,98031.28
2023-01-19T15:42:14.476Z,98033.34
2023-01-19T15:44:41.521Z,98054.22
2023-01-19T15:47:09.841Z,98064.81
2023-01-19T15:49:37.191Z,98073.28
2023-01-19T15:52:04.379Z,98062.22
2023-01-19T15:54:31.404Z,98075.22
2023-01-19T15:56:58.791Z,98079.34
2023-01-19T15:59:26.002Z,98069.34
2023-01-19T16:01:53.135Z,98069.19
2023-01-19T16:04:20.564Z,98082.00
2023-01-19T16:06:47.828Z,98085.63
2023-01-19T16:09:18.439Z,98095.09
2023-01-19T16:11:46.450Z,98109.59
2023-01-19T16:14:14.169Z,98124.31
2023-01-19T16:16:44.865Z,98130.28
2023-01-19T16:19:14.632Z,98137.97
2023-01-19T16:21:43.878Z,98148.41
2023-01-19T16:24:10.890Z,98149.97
2023-01-19T16:26:38.255Z,98152.34
2023-01-19T16:29:10.967Z,98164.81
2023-01-19T16:31:42.678Z,98177.38
2023-01-19T16:34:10.157Z,98183.69
2023-01-19T16:36:40.583Z,98182.84
2023-01-19T16:39:11.766Z,98189.09
2023-01-19T16:41:39.429Z,98191.59
2023-01-19T16:44:07.351Z,98190.72
2023-01-19T16:46:37.168Z,98194.22
2023-01-19T16:49:07.329Z,98208.94
2023-01-19T16:51:34.659Z,98216.97
2023-01-19T16:54:01.966Z,98206.59
2023-01-19T16:56:29.011Z,98211.94
2023-01-19T16:58:57.798Z,98215.72
2023-01-19T17:01:27.199Z,98229.88
2023-01-19T17:03:55.231Z,98215.03
2023-01-19T17:06:24.094Z,98221.84
2023-01-19T17:08:52.490Z,98226.25
2023-01-19T17:11:22.861Z,98237.47
2023-01-19T17:13:54.516Z,98241.97
2023-01-19T17:16:22.740Z,98243.22
2023-01-19T17:18:50.739Z,98254.47
2023-01-19T17:21:17.978Z,98246.16
2023-01-19T17:23:47.253Z,98249.22
2023-01-19T17:26:15.755Z,98257.91
2023-01-19T17:28:43.604Z,98246.00
2023-01-19T17:31:13.668Z,98248.63
2023-01-19T17:33:44.386Z,98247.91
2023-01-19T17:36:14.251Z,98245.78
2023-01-19T17:38:42.239Z,98240.59
2023-01-19T17:41:29.462Z,98242.78
2023-01-19T17:43:57.624Z,98243.66
2023-01-19T17:46:26.517Z,98251.62
2023-01-19T17:49:02.405Z,98244.03
2023-01-19T17:51:31.164Z,98248.50
2023-01-19T17:53:58.770Z,98253.78
2023-01-19T17:56:29.727Z,98251.00
2023-01-19T17:58:58.341Z,98274.41
2023-01-19T18:01:27.928Z,98279.50
2023-01-19T18:03:56.473Z,98280.28
2023-01-19T18:06:23.961Z,98282.00
2023-01-19T18:08:51.285Z,98294.22
2023-01-19T18:11:22.527Z,98299.31
2023-01-19T18:13:50.873Z,98291.13
2023-01-19T18:16:21.784Z,98298.00
2023-01-19T18:18:50.181Z,98295.31
2023-01-19T18:21:18.095Z,98297.81
2023-01-19T18:23:45.781Z,98293.66
2023-01-19T18:26:19.972Z,98303.66
2023-01-19T18:28:48.203Z,98310.13
2023-01-19T18:31:19.113Z,98303.22
2023-01-19T18:33:47.910Z,98312.53
2023-01-19T18:36:16.955Z,98307.19
2023-01-19T18:38:44.671Z,98311.94
2023-01-19T18:41:13.083Z,98309.28
2023-01-19T18:43:40.495Z,98309.37
2023-01-19T18:46:08.241Z,98310.75
2023-01-19T18:48:37.875Z,98306.09
2023-01-19T18:51:09.754Z,98307.16
2023-01-19T18:53:37.642Z,98303.41
2023-01-19T18:56:05.855Z,98312.97
2023-01-19T18:58:33.992Z,98309.06
2023-01-19T19:01:01.748Z,98301.44
2023-01-19T19:03:29.766Z,98321.25
2023-01-19T19:05:56.928Z,98322.69
2023-01-19T19:08:24.324Z,98329.16
2023-01-19T19:10:51.671Z,98328.03
2023-01-19T19:13:21.818Z,98341.97
2023-01-19T19:15:49.224Z,98338.59
2023-01-19T19:18:16.668Z,98341.13
2023-01-19T19:20:44.325Z,98350.88
2023-01-19T19:23:11.968Z,98357.47
2023-01-19T19:25:39.382Z,98360.47
2023-01-19T19:28:06.736Z,98373.06
2023-01-19T19:30:35.653Z,98375.41
2023-01-19T19:33:02.999Z,98377.06
2023-01-19T19:35:30.340Z,98378.41
2023-01-19T19:37:57.778Z,98374.06
2023-01-19T19:40:27.014Z,98384.69
2023-01-19T19:42:54.111Z,98386.38
2023-01-19T19:45:21.223Z,98392.69
2023-01-19T19:47:48.619Z,98394.28
2023-01-19T19:50:16.060Z,98388.25
2023-01-19T19:52:43.299Z,98400.47
2023-01-19T19:55:11.117Z,98396.88
2023-01-19T19:57:38.362Z,98397.81
2023-01-19T20:00:06.629Z,98403.19
2023-01-19T20:02:36.771Z,98414.44
2023-01-19T20:05:04.794Z,98407.19
2023-01-19T20:07:34.637Z,98408.97
2023-01-19T20:10:01.749Z,98403.88
2023-01-19T20:12:29.099Z,98393.44
2023-01-19T20:14:56.132Z,98385.91
2023-01-19T20:17:24.697Z,98395.31
2023-01-19T20:19:52.133Z,98398.09
2023-01-19T20:22:19.229Z,98400.56
2023-01-19T20:24:46.407Z,98404.19
2023-01-19T20:27:13.775Z,98401.50
2023-01-19T20:29:40.944Z,98395.28
2023-01-19T20:32:08.199Z,98388.69
2023-01-19T20:34:36.103Z,98392.37
2023-01-19T20:37:04.713Z,98390.81
2023-01-19T20:39:35.349Z,98387.19
2023-01-19T20:42:02.788Z,98385.53
2023-01-19T20:44:30.306Z,98386.53
2023-01-19T20:46:57.389Z,98383.25
2023-01-19T20:49:27.119Z,98385.06
2023-01-19T20:51:54.602Z,98382.28
2023-01-19T20:54:24.597Z,98380.66
2023-01-19T20:56:52.011Z,98382.69
2023-01-19T20:59:19.224Z,98389.50
2023-01-19T21:01:46.530Z,98400.31
2023-01-19T21:04:14.602Z,98393.22
2023-01-19T21:06:42.022Z,98398.50
2023-01-19T21:09:10.463Z,98390.72
2023-01-19T21:11:38.552Z,98391.34
2023-01-19T21:14:07.169Z,98393.84
2023-01-19T21:16:35.042Z,98392.09
2023-01-19T21:19:03.082Z,98393.87
2023-01-19T21:21:31.627Z,98393.97
2023-01-19T21:24:00.984Z,98390.44
2023-01-19T21:26:33.412Z,98391.34
2023-01-19T21:29:01.709Z,98400.97
2023-01-19T21:31:29.933Z,98396.66
2023-01-19T21:33:57.869Z,98401.84
2023-01-19T21:36:25.124Z,98415.16
2023-01-19T21:38:52.918Z,98423.41
2023-01-19T21:41:20.194Z,98427.34
2023-01-19T21:43:47.628Z,98429.88
2023-01-19T21:46:19.547Z,98424.66
2023-01-19T21:48:47.368Z,98426.56
2023-01-19T21:51:15.785Z,98439.25
2023-01-19T21:53:42.897Z,98462.72
2023-01-19T21:56:11.265Z,98493.00
2023-01-19T21:58:39.040Z,98537.87
2023-01-19T22:01:15.385Z,98555.72
2023-01-19T22:03:44.976Z,98556.56
2023-01-19T22:06:14.230Z,98540.84
2023-01-19T22:08:41.797Z,98524.34
2023-01-19T22:11:11.757Z,98508.06
2023-01-19T22:13:39.654Z,98492.37
2023-01-19T22:16:10.031Z,98489.94
2023-01-19T22:18:43.001Z,98492.56
2023-01-19T22:21:12.279Z,98498.41
2023-01-19T22:23:40.591Z,98502.69
2023-01-19T22:26:09.853Z,98494.41
2023-01-19T22:28:37.639Z,98487.38
2023-01-19T22:31:06.337Z,98476.69
2023-01-19T22:33:33.540Z,98465.56
2023-01-19T22:36:21.525Z,98470.97
2023-01-19T22:38:59.753Z,98495.81
2023-01-19T22:41:32.030Z,98501.69
2023-01-19T22:44:01.731Z,98499.16
2023-01-19T22:46:31.285Z,98491.53
2023-01-19T22:48:59.154Z,98478.06
2023-01-19T22:51:30.493Z,98472.78
2023-01-19T22:53:57.767Z,98481.34
2023-01-19T22:56:27.187Z,98482.91
2023-01-19T22:58:55.314Z,98483.84
2023-01-19T23:01:24.718Z,98480.22
2023-01-19T23:03:52.479Z,98471.41
2023-01-19T23:06:25.841Z,98473.94
2023-01-19T23:08:55.341Z,98460.84
2023-01-19T23:11:25.891Z,98464.47
2023-01-19T23:13:53.524Z,98462.03
2023-01-19T23:16:20.712Z,98454.56
2023-01-19T23:18:51.937Z,98448.78
2023-01-19T23:21:21.621Z,98435.06
2023-01-19T23:23:49.211Z,98436.50
2023-01-19T23:26:18.523Z,98433.19
2023-01-19T23:28:46.724Z,98428.00
2023-01-19T23:31:18.736Z,98427.47
2023-01-19T23:33:45.888Z,98423.06
2023-01-19T23:36:14.751Z,98419.69
2023-01-19T23:38:42.751Z,98424.38
2023-01-19T23:41:10.209Z,98434.78
2023-01-19T23:43:37.645Z,98447.19
2023-01-19T23:46:06.684Z,98463.22
2023-01-19T23:48:34.718Z,98479.72
2023-01-19T23:51:25.889Z,98488.28
2023-01-19T23:53:53.006Z,98493.41
2023-01-19T23:56:23.920Z,98491.16
2023-01-19T23:59:00.803Z,98475.34
